sensor_id;sensor_type;location;lat;lon;timestamp;P1;durP1;ratioP1;P2;durP2;ratioP2
19854;SDS011;10088;47.946;2.532;2024-02-23T00:00:06;3.00;;;0.73;;
19854;SDS011;10088;47.946;2.532;2024-02-23T00:02:31;4.93;;;1.10;;
19854;SDS011;10088;47.946;2.532;2024-02-23T00:04:57;5.20;;;0.97;;
19854;SDS011;10088;47.946;2.532;2024-02-23T00:07:22;4.90;;;1.20;;
19854;SDS011;10088;47.946;2.532;2024-02-23T00:09:47;7.63;;;0.87;;
19854;SDS011;10088;47.946;2.532;2024-02-23T00:12:13;2.97;;;0.60;;
19854;SDS011;10088;47.946;2.532;2024-02-23T00:14:39;4.60;;;0.63;;
19854;SDS011;10088;47.946;2.532;2024-02-23T00:17:04;2.53;;;0.87;;
19854;SDS011;10088;47.946;2.532;2024-02-23T00:19:30;5.70;;;1.00;;
19854;SDS011;10088;47.946;2.532;2024-02-23T00:21:55;2.80;;;0.80;;
19854;SDS011;10088;47.946;2.532;2024-02-23T00:24:20;6.23;;;0.73;;
19854;SDS011;10088;47.946;2.532;2024-02-23T00:26:46;1.87;;;0.60;;
19854;SDS011;10088;47.946;2.532;2024-02-23T00:29:11;2.00;;;0.60;;
19854;SDS011;10088;47.946;2.532;2024-02-23T00:31:40;7.50;;;0.80;;
19854;SDS011;10088;47.946;2.532;2024-02-23T00:34:06;2.60;;;1.20;;
19854;SDS011;10088;47.946;2.532;2024-02-23T00:36:35;3.60;;;0.77;;
19854;SDS011;10088;47.946;2.532;2024-02-23T00:39:00;3.60;;;0.60;;
19854;SDS011;10088;47.946;2.532;2024-02-23T00:41:25;7.63;;;1.07;;
19854;SDS011;10088;47.946;2.532;2024-02-23T00:43:51;3.57;;;0.90;;
19854;SDS011;10088;47.946;2.532;2024-02-23T00:46:16;9.10;;;1.40;;
19854;SDS011;10088;47.946;2.532;2024-02-23T00:48:41;2.73;;;1.03;;
19854;SDS011;10088;47.946;2.532;2024-02-23T00:51:07;6.67;;;0.70;;
19854;SDS011;10088;47.946;2.532;2024-02-23T00:53:32;3.13;;;1.00;;
19854;SDS011;10088;47.946;2.532;2024-02-23T00:55:58;2.87;;;0.90;;
19854;SDS011;10088;47.946;2.532;2024-02-23T00:58:23;5.83;;;1.53;;
19854;SDS011;10088;47.946;2.532;2024-02-23T01:00:48;4.17;;;0.77;;
19854;SDS011;10088;47.946;2.532;2024-02-23T01:03:14;4.67;;;1.23;;
19854;SDS011;10088;47.946;2.532;2024-02-23T01:05:39;3.97;;;0.80;;
19854;SDS011;10088;47.946;2.532;2024-02-23T01:08:04;5.37;;;1.20;;
19854;SDS011;10088;47.946;2.532;2024-02-23T01:10:30;2.20;;;0.57;;
19854;SDS011;10088;47.946;2.532;2024-02-23T01:12:55;3.13;;;1.10;;
19854;SDS011;10088;47.946;2.532;2024-02-23T01:15:20;3.60;;;0.93;;
19854;SDS011;10088;47.946;2.532;2024-02-23T01:17:46;4.50;;;0.87;;
19854;SDS011;10088;47.946;2.532;2024-02-23T01:20:11;3.03;;;0.80;;
19854;SDS011;10088;47.946;2.532;2024-02-23T01:22:36;9.47;;;1.03;;
19854;SDS011;10088;47.946;2.532;2024-02-23T01:25:02;6.50;;;1.77;;
19854;SDS011;10088;47.946;2.532;2024-02-23T01:27:27;7.47;;;1.17;;
19854;SDS011;10088;47.946;2.532;2024-02-23T01:29:53;5.30;;;1.10;;
19854;SDS011;10088;47.946;2.532;2024-02-23T01:32:18;4.03;;;0.70;;
19854;SDS011;10088;47.946;2.532;2024-02-23T01:34:43;8.13;;;1.27;;
19854;SDS011;10088;47.946;2.532;2024-02-23T01:37:08;14.37;;;1.90;;
19854;SDS011;10088;47.946;2.532;2024-02-23T01:39:34;6.77;;;1.40;;
19854;SDS011;10088;47.946;2.532;2024-02-23T01:41:59;8.87;;;1.50;;
19854;SDS011;10088;47.946;2.532;2024-02-23T01:44:24;3.73;;;1.17;;
19854;SDS011;10088;47.946;2.532;2024-02-23T01:46:50;1.97;;;0.63;;
19854;SDS011;10088;47.946;2.532;2024-02-23T01:49:15;11.93;;;2.77;;
19854;SDS011;10088;47.946;2.532;2024-02-23T01:51:41;7.40;;;1.23;;
19854;SDS011;10088;47.946;2.532;2024-02-23T01:54:06;3.47;;;0.80;;
19854;SDS011;10088;47.946;2.532;2024-02-23T01:56:32;3.50;;;1.00;;
19854;SDS011;10088;47.946;2.532;2024-02-23T01:58:57;10.07;;;1.13;;
19854;SDS011;10088;47.946;2.532;2024-02-23T02:01:23;2.87;;;1.00;;
19854;SDS011;10088;47.946;2.532;2024-02-23T02:03:48;3.80;;;0.87;;
19854;SDS011;10088;47.946;2.532;2024-02-23T02:06:14;2.93;;;0.83;;
19854;SDS011;10088;47.946;2.532;2024-02-23T02:08:39;3.00;;;1.07;;
19854;SDS011;10088;47.946;2.532;2024-02-23T02:11:05;3.67;;;0.73;;
19854;SDS011;10088;47.946;2.532;2024-02-23T02:13:30;2.73;;;1.00;;
19854;SDS011;10088;47.946;2.532;2024-02-23T02:15:55;7.03;;;1.87;;
19854;SDS011;10088;47.946;2.532;2024-02-23T02:18:21;10.33;;;1.57;;
19854;SDS011;10088;47.946;2.532;2024-02-23T02:20:56;4.57;;;1.27;;
19854;SDS011;10088;47.946;2.532;2024-02-23T02:23:22;8.63;;;1.67;;
19854;SDS011;10088;47.946;2.532;2024-02-23T02:25:54;6.00;;;1.40;;
19854;SDS011;10088;47.946;2.532;2024-02-23T02:28:19;5.80;;;1.13;;
19854;SDS011;10088;47.946;2.532;2024-02-23T02:30:44;7.90;;;1.33;;
19854;SDS011;10088;47.946;2.532;2024-02-23T02:33:09;8.87;;;1.77;;
19854;SDS011;10088;47.946;2.532;2024-02-23T02:35:35;3.37;;;1.00;;
19854;SDS011;10088;47.946;2.532;2024-02-23T02:38:00;8.97;;;1.27;;
19854;SDS011;10088;47.946;2.532;2024-02-23T02:40:25;10.80;;;1.67;;
19854;SDS011;10088;47.946;2.532;2024-02-23T02:42:50;3.93;;;1.53;;
19854;SDS011;10088;47.946;2.532;2024-02-23T02:45:16;6.53;;;1.13;;
19854;SDS011;10088;47.946;2.532;2024-02-23T02:47:42;5.53;;;1.00;;
19854;SDS011;10088;47.946;2.532;2024-02-23T02:50:08;6.20;;;1.10;;
19854;SDS011;10088;47.946;2.532;2024-02-23T02:52:33;6.23;;;1.20;;
19854;SDS011;10088;47.946;2.532;2024-02-23T02:54:58;4.90;;;0.87;;
19854;SDS011;10088;47.946;2.532;2024-02-23T02:57:24;10.20;;;1.83;;
19854;SDS011;10088;47.946;2.532;2024-02-23T02:59:49;3.10;;;0.70;;
19854;SDS011;10088;47.946;2.532;2024-02-23T03:02:15;2.33;;;0.47;;
19854;SDS011;10088;47.946;2.532;2024-02-23T03:04:49;4.83;;;1.10;;
19854;SDS011;10088;47.946;2.532;2024-02-23T03:07:15;4.10;;;0.83;;
19854;SDS011;10088;47.946;2.532;2024-02-23T03:09:41;4.37;;;0.93;;
19854;SDS011;10088;47.946;2.532;2024-02-23T03:12:06;2.80;;;0.73;;
19854;SDS011;10088;47.946;2.532;2024-02-23T03:14:31;2.47;;;0.80;;
19854;SDS011;10088;47.946;2.532;2024-02-23T03:16:58;6.07;;;1.10;;
19854;SDS011;10088;47.946;2.532;2024-02-23T03:19:24;7.30;;;1.87;;
19854;SDS011;10088;47.946;2.532;2024-02-23T03:21:50;5.23;;;0.80;;
19854;SDS011;10088;47.946;2.532;2024-02-23T03:24:15;7.30;;;1.03;;
19854;SDS011;10088;47.946;2.532;2024-02-23T03:26:41;4.30;;;0.73;;
19854;SDS011;10088;47.946;2.532;2024-02-23T03:29:06;5.83;;;0.90;;
19854;SDS011;10088;47.946;2.532;2024-02-23T03:31:31;5.87;;;1.17;;
19854;SDS011;10088;47.946;2.532;2024-02-23T03:33:57;6.10;;;1.13;;
19854;SDS011;10088;47.946;2.532;2024-02-23T03:36:22;6.50;;;1.10;;
19854;SDS011;10088;47.946;2.532;2024-02-23T03:38:47;5.20;;;0.87;;
19854;SDS011;10088;47.946;2.532;2024-02-23T03:41:12;4.33;;;0.93;;
19854;SDS011;10088;47.946;2.532;2024-02-23T03:43:38;2.13;;;0.83;;
19854;SDS011;10088;47.946;2.532;2024-02-23T03:46:03;2.20;;;0.87;;
19854;SDS011;10088;47.946;2.532;2024-02-23T03:48:28;5.83;;;1.20;;
19854;SDS011;10088;47.946;2.532;2024-02-23T03:50:54;3.73;;;0.60;;
19854;SDS011;10088;47.946;2.532;2024-02-23T03:53:19;4.00;;;1.30;;
19854;SDS011;10088;47.946;2.532;2024-02-23T03:55:44;5.83;;;1.10;;
19854;SDS011;10088;47.946;2.532;2024-02-23T03:58:10;3.87;;;0.60;;
19854;SDS011;10088;47.946;2.532;2024-02-23T04:00:35;3.00;;;0.97;;
19854;SDS011;10088;47.946;2.532;2024-02-23T04:03:00;8.57;;;1.30;;
19854;SDS011;10088;47.946;2.532;2024-02-23T04:05:25;8.13;;;1.13;;
19854;SDS011;10088;47.946;2.532;2024-02-23T04:07:51;5.40;;;1.47;;
19854;SDS011;10088;47.946;2.532;2024-02-23T04:10:16;4.57;;;0.80;;
19854;SDS011;10088;47.946;2.532;2024-02-23T04:12:44;5.63;;;0.80;;
19854;SDS011;10088;47.946;2.532;2024-02-23T04:15:11;5.43;;;0.90;;
19854;SDS011;10088;47.946;2.532;2024-02-23T04:17:36;6.43;;;1.07;;
19854;SDS011;10088;47.946;2.532;2024-02-23T04:20:05;2.40;;;0.87;;
19854;SDS011;10088;47.946;2.532;2024-02-23T04:22:30;4.10;;;0.97;;
19854;SDS011;10088;47.946;2.532;2024-02-23T04:24:55;3.77;;;1.07;;
19854;SDS011;10088;47.946;2.532;2024-02-23T04:27:20;2.93;;;0.97;;
19854;SDS011;10088;47.946;2.532;2024-02-23T04:29:46;9.80;;;1.50;;
19854;SDS011;10088;47.946;2.532;2024-02-23T04:32:11;6.10;;;1.30;;
19854;SDS011;10088;47.946;2.532;2024-02-23T04:34:36;5.93;;;1.53;;
19854;SDS011;10088;47.946;2.532;2024-02-23T04:37:02;1.03;;;0.80;;
19854;SDS011;10088;47.946;2.532;2024-02-23T04:39:27;4.83;;;1.50;;
19854;SDS011;10088;47.946;2.532;2024-02-23T04:41:52;2.17;;;0.80;;
19854;SDS011;10088;47.946;2.532;2024-02-23T04:44:18;4.03;;;0.80;;
19854;SDS011;10088;47.946;2.532;2024-02-23T04:46:44;6.00;;;0.93;;
19854;SDS011;10088;47.946;2.532;2024-02-23T04:49:10;4.03;;;0.67;;
19854;SDS011;10088;47.946;2.532;2024-02-23T04:51:36;2.27;;;1.03;;
19854;SDS011;10088;47.946;2.532;2024-02-23T04:54:02;5.67;;;1.30;;
19854;SDS011;10088;47.946;2.532;2024-02-23T04:56:28;6.40;;;1.00;;
19854;SDS011;10088;47.946;2.532;2024-02-23T04:58:53;4.43;;;1.87;;
19854;SDS011;10088;47.946;2.532;2024-02-23T05:01:18;3.50;;;2.30;;
19854;SDS011;10088;47.946;2.532;2024-02-23T05:03:44;5.37;;;1.60;;
19854;SDS011;10088;47.946;2.532;2024-02-23T05:06:10;11.00;;;4.73;;
19854;SDS011;10088;47.946;2.532;2024-02-23T05:08:35;6.73;;;4.27;;
19854;SDS011;10088;47.946;2.532;2024-02-23T05:11:00;7.50;;;3.60;;
19854;SDS011;10088;47.946;2.532;2024-02-23T05:13:26;7.87;;;3.50;;
19854;SDS011;10088;47.946;2.532;2024-02-23T05:15:51;4.73;;;0.93;;
19854;SDS011;10088;47.946;2.532;2024-02-23T05:18:16;10.43;;;4.33;;
19854;SDS011;10088;47.946;2.532;2024-02-23T05:20:42;8.87;;;3.93;;
19854;SDS011;10088;47.946;2.532;2024-02-23T05:23:07;9.47;;;3.33;;
19854;SDS011;10088;47.946;2.532;2024-02-23T05:25:33;7.77;;;2.67;;
19854;SDS011;10088;47.946;2.532;2024-02-23T05:27:58;10.83;;;3.63;;
19854;SDS011;10088;47.946;2.532;2024-02-23T05:30:23;7.33;;;3.20;;
19854;SDS011;10088;47.946;2.532;2024-02-23T05:32:48;8.97;;;2.67;;
19854;SDS011;10088;47.946;2.532;2024-02-23T05:35:14;12.47;;;5.70;;
19854;SDS011;10088;47.946;2.532;2024-02-23T05:37:40;8.00;;;2.83;;
19854;SDS011;10088;47.946;2.532;2024-02-23T05:40:06;9.23;;;3.60;;
19854;SDS011;10088;47.946;2.532;2024-02-23T05:42:35;7.20;;;2.30;;
19854;SDS011;10088;47.946;2.532;2024-02-23T05:45:00;29.67;;;9.90;;
19854;SDS011;10088;47.946;2.532;2024-02-23T05:47:25;8.27;;;1.70;;
19854;SDS011;10088;47.946;2.532;2024-02-23T05:49:51;20.33;;;7.40;;
19854;SDS011;10088;47.946;2.532;2024-02-23T05:52:16;26.90;;;10.37;;
19854;SDS011;10088;47.946;2.532;2024-02-23T05:54:41;18.10;;;5.00;;
19854;SDS011;10088;47.946;2.532;2024-02-23T05:57:06;6.90;;;2.90;;
19854;SDS011;10088;47.946;2.532;2024-02-23T05:59:32;19.57;;;6.50;;
19854;SDS011;10088;47.946;2.532;2024-02-23T06:01:57;15.87;;;4.90;;
19854;SDS011;10088;47.946;2.532;2024-02-23T06:04:23;7.00;;;1.33;;
19854;SDS011;10088;47.946;2.532;2024-02-23T06:06:48;12.23;;;4.20;;
19854;SDS011;10088;47.946;2.532;2024-02-23T06:09:13;7.67;;;2.83;;
19854;SDS011;10088;47.946;2.532;2024-02-23T06:11:39;11.40;;;4.97;;
19854;SDS011;10088;47.946;2.532;2024-02-23T06:14:04;11.30;;;3.40;;
19854;SDS011;10088;47.946;2.532;2024-02-23T06:16:29;15.10;;;4.93;;
19854;SDS011;10088;47.946;2.532;2024-02-23T06:18:55;16.40;;;4.20;;
19854;SDS011;10088;47.946;2.532;2024-02-23T06:21:20;6.77;;;2.00;;
19854;SDS011;10088;47.946;2.532;2024-02-23T06:23:45;17.57;;;5.60;;
19854;SDS011;10088;47.946;2.532;2024-02-23T06:26:10;24.50;;;9.13;;
19854;SDS011;10088;47.946;2.532;2024-02-23T06:28:36;19.27;;;7.93;;
19854;SDS011;10088;47.946;2.532;2024-02-23T06:31:06;8.10;;;3.97;;
19854;SDS011;10088;47.946;2.532;2024-02-23T06:33:32;7.27;;;2.47;;
19854;SDS011;10088;47.946;2.532;2024-02-23T06:35:57;15.67;;;4.20;;
19854;SDS011;10088;47.946;2.532;2024-02-23T06:38:23;11.80;;;5.33;;
19854;SDS011;10088;47.946;2.532;2024-02-23T06:40:48;18.17;;;5.47;;
19854;SDS011;10088;47.946;2.532;2024-02-23T06:43:13;13.53;;;5.20;;
19854;SDS011;10088;47.946;2.532;2024-02-23T06:45:38;3.87;;;1.73;;
19854;SDS011;10088;47.946;2.532;2024-02-23T06:48:04;11.07;;;3.80;;
19854;SDS011;10088;47.946;2.532;2024-02-23T06:50:30;8.80;;;3.17;;
19854;SDS011;10088;47.946;2.532;2024-02-23T06:52:55;9.33;;;3.87;;
19854;SDS011;10088;47.946;2.532;2024-02-23T06:55:20;3.63;;;1.60;;
19854;SDS011;10088;47.946;2.532;2024-02-23T06:57:46;14.50;;;6.57;;
19854;SDS011;10088;47.946;2.532;2024-02-23T07:00:12;9.70;;;3.80;;
19854;SDS011;10088;47.946;2.532;2024-02-23T07:02:37;13.87;;;4.40;;
19854;SDS011;10088;47.946;2.532;2024-02-23T07:05:04;7.07;;;2.23;;
19854;SDS011;10088;47.946;2.532;2024-02-23T07:07:32;14.47;;;4.13;;
19854;SDS011;10088;47.946;2.532;2024-02-23T07:09:59;12.73;;;4.73;;
19854;SDS011;10088;47.946;2.532;2024-02-23T07:12:25;17.37;;;6.23;;
19854;SDS011;10088;47.946;2.532;2024-02-23T07:14:56;7.03;;;1.60;;
19854;SDS011;10088;47.946;2.532;2024-02-23T07:17:22;4.23;;;2.00;;
19854;SDS011;10088;47.946;2.532;2024-02-23T07:19:48;8.43;;;3.60;;
19854;SDS011;10088;47.946;2.532;2024-02-23T07:22:14;10.27;;;2.57;;
19854;SDS011;10088;47.946;2.532;2024-02-23T07:24:42;5.87;;;2.70;;
19854;SDS011;10088;47.946;2.532;2024-02-23T07:27:08;13.77;;;5.47;;
19854;SDS011;10088;47.946;2.532;2024-02-23T07:29:37;8.73;;;3.50;;
19854;SDS011;10088;47.946;2.532;2024-02-23T07:32:04;4.30;;;1.30;;
19854;SDS011;10088;47.946;2.532;2024-02-23T07:34:30;5.40;;;2.27;;
19854;SDS011;10088;47.946;2.532;2024-02-23T07:36:56;11.87;;;4.07;;
19854;SDS011;10088;47.946;2.532;2024-02-23T07:39:24;8.67;;;3.77;;
19854;SDS011;10088;47.946;2.532;2024-02-23T07:41:50;2.93;;;1.37;;
19854;SDS011;10088;47.946;2.532;2024-02-23T07:44:16;6.13;;;2.50;;
19854;SDS011;10088;47.946;2.532;2024-02-23T07:46:42;16.70;;;6.20;;
19854;SDS011;10088;47.946;2.532;2024-02-23T07:49:09;10.53;;;4.53;;
19854;SDS011;10088;47.946;2.532;2024-02-23T07:51:35;5.20;;;1.67;;
19854;SDS011;10088;47.946;2.532;2024-02-23T07:54:01;11.83;;;5.27;;
19854;SDS011;10088;47.946;2.532;2024-02-23T07:56:28;12.67;;;4.17;;
19854;SDS011;10088;47.946;2.532;2024-02-23T07:58:56;8.77;;;3.23;;
19854;SDS011;10088;47.946;2.532;2024-02-23T08:01:25;9.37;;;3.43;;
19854;SDS011;10088;47.946;2.532;2024-02-23T08:03:54;6.67;;;3.00;;
19854;SDS011;10088;47.946;2.532;2024-02-23T08:06:21;4.73;;;1.83;;
19854;SDS011;10088;47.946;2.532;2024-02-23T08:08:48;8.83;;;2.87;;
19854;SDS011;10088;47.946;2.532;2024-02-23T08:11:16;1.50;;;1.10;;
19854;SDS011;10088;47.946;2.532;2024-02-23T08:13:42;5.07;;;2.27;;
19854;SDS011;10088;47.946;2.532;2024-02-23T08:16:09;7.47;;;2.03;;
19854;SDS011;10088;47.946;2.532;2024-02-23T08:18:37;9.13;;;2.93;;
19854;SDS011;10088;47.946;2.532;2024-02-23T08:21:05;7.77;;;2.80;;
19854;SDS011;10088;47.946;2.532;2024-02-23T08:23:32;3.43;;;1.57;;
19854;SDS011;10088;47.946;2.532;2024-02-23T08:25:58;3.50;;;1.23;;
19854;SDS011;10088;47.946;2.532;2024-02-23T08:28:25;2.90;;;1.50;;
19854;SDS011;10088;47.946;2.532;2024-02-23T08:30:51;2.63;;;0.90;;
19854;SDS011;10088;47.946;2.532;2024-02-23T08:33:21;5.27;;;2.13;;
19854;SDS011;10088;47.946;2.532;2024-02-23T08:35:47;4.73;;;1.43;;
19854;SDS011;10088;47.946;2.532;2024-02-23T08:38:16;3.17;;;1.13;;
19854;SDS011;10088;47.946;2.532;2024-02-23T08:40:42;5.87;;;1.10;;
19854;SDS011;10088;47.946;2.532;2024-02-23T08:43:07;2.13;;;0.97;;
19854;SDS011;10088;47.946;2.532;2024-02-23T08:45:36;10.03;;;1.07;;
19854;SDS011;10088;47.946;2.532;2024-02-23T08:48:04;1.33;;;0.40;;
19854;SDS011;10088;47.946;2.532;2024-02-23T08:50:30;1.83;;;0.80;;
19854;SDS011;10088;47.946;2.532;2024-02-23T08:52:56;4.30;;;0.73;;
19854;SDS011;10088;47.946;2.532;2024-02-23T08:55:22;1.77;;;0.73;;
19854;SDS011;10088;47.946;2.532;2024-02-23T08:57:49;4.77;;;0.80;;
19854;SDS011;10088;47.946;2.532;2024-02-23T09:00:17;2.03;;;0.80;;
19854;SDS011;10088;47.946;2.532;2024-02-23T09:02:43;3.23;;;0.63;;
19854;SDS011;10088;47.946;2.532;2024-02-23T09:05:10;1.47;;;0.70;;
19854;SDS011;10088;47.946;2.532;2024-02-23T09:07:36;3.13;;;0.60;;
19854;SDS011;10088;47.946;2.532;2024-02-23T09:10:03;1.70;;;0.67;;
19854;SDS011;10088;47.946;2.532;2024-02-23T09:12:30;1.77;;;0.97;;
19854;SDS011;10088;47.946;2.532;2024-02-23T09:14:56;1.47;;;0.80;;
19854;SDS011;10088;47.946;2.532;2024-02-23T09:17:21;3.97;;;0.83;;
19854;SDS011;10088;47.946;2.532;2024-02-23T09:19:48;2.17;;;1.00;;
19854;SDS011;10088;47.946;2.532;2024-02-23T09:22:14;1.73;;;0.90;;
19854;SDS011;10088;47.946;2.532;2024-02-23T09:24:42;2.60;;;0.90;;
19854;SDS011;10088;47.946;2.532;2024-02-23T09:27:08;2.80;;;0.90;;
19854;SDS011;10088;47.946;2.532;2024-02-23T09:29:34;3.10;;;1.30;;
19854;SDS011;10088;47.946;2.532;2024-02-23T09:32:03;3.47;;;0.80;;
19854;SDS011;10088;47.946;2.532;2024-02-23T09:34:29;2.77;;;0.90;;
19854;SDS011;10088;47.946;2.532;2024-02-23T09:36:55;6.00;;;1.40;;
19854;SDS011;10088;47.946;2.532;2024-02-23T09:39:23;2.63;;;0.60;;
19854;SDS011;10088;47.946;2.532;2024-02-23T09:41:52;4.00;;;1.33;;
19854;SDS011;10088;47.946;2.532;2024-02-23T09:44:20;2.93;;;0.80;;
19854;SDS011;10088;47.946;2.532;2024-02-23T09:46:49;2.97;;;0.90;;
19854;SDS011;10088;47.946;2.532;2024-02-23T09:49:15;2.40;;;0.80;;
19854;SDS011;10088;47.946;2.532;2024-02-23T09:51:44;2.20;;;0.57;;
19854;SDS011;10088;47.946;2.532;2024-02-23T09:54:11;2.57;;;0.70;;
19854;SDS011;10088;47.946;2.532;2024-02-23T09:56:37;1.67;;;0.77;;
19854;SDS011;10088;47.946;2.532;2024-02-23T09:59:05;0.73;;;0.37;;
19854;SDS011;10088;47.946;2.532;2024-02-23T10:01:32;3.33;;;1.00;;
19854;SDS011;10088;47.946;2.532;2024-02-23T10:04:00;3.50;;;0.80;;
19854;SDS011;10088;47.946;2.532;2024-02-23T10:06:26;2.93;;;0.73;;
19854;SDS011;10088;47.946;2.532;2024-02-23T10:08:53;4.60;;;0.83;;
19854;SDS011;10088;47.946;2.532;2024-02-23T10:11:21;0.80;;;0.40;;
19854;SDS011;10088;47.946;2.532;2024-02-23T10:13:48;1.47;;;0.53;;
19854;SDS011;10088;47.946;2.532;2024-02-23T10:16:16;2.30;;;0.70;;
19854;SDS011;10088;47.946;2.532;2024-02-23T10:18:42;3.37;;;0.63;;
19854;SDS011;10088;47.946;2.532;2024-02-23T10:21:09;2.10;;;1.10;;
19854;SDS011;10088;47.946;2.532;2024-02-23T10:23:36;4.13;;;1.13;;
19854;SDS011;10088;47.946;2.532;2024-02-23T10:26:05;3.17;;;0.60;;
19854;SDS011;10088;47.946;2.532;2024-02-23T10:28:32;4.60;;;1.10;;
19854;SDS011;10088;47.946;2.532;2024-02-23T10:30:58;2.83;;;0.90;;
19854;SDS011;10088;47.946;2.532;2024-02-23T10:33:26;7.03;;;1.00;;
19854;SDS011;10088;47.946;2.532;2024-02-23T10:35:55;1.90;;;0.60;;
19854;SDS011;10088;47.946;2.532;2024-02-23T10:38:24;2.57;;;0.60;;
19854;SDS011;10088;47.946;2.532;2024-02-23T10:40:51;1.83;;;0.60;;
19854;SDS011;10088;47.946;2.532;2024-02-23T10:43:27;0.60;;;0.50;;
19854;SDS011;10088;47.946;2.532;2024-02-23T10:45:56;2.33;;;0.40;;
19854;SDS011;10088;47.946;2.532;2024-02-23T10:48:24;4.67;;;0.60;;
19854;SDS011;10088;47.946;2.532;2024-02-23T10:50:52;4.13;;;0.70;;
19854;SDS011;10088;47.946;2.532;2024-02-23T10:53:19;3.83;;;0.80;;
19854;SDS011;10088;47.946;2.532;2024-02-23T10:55:45;1.10;;;0.50;;
19854;SDS011;10088;47.946;2.532;2024-02-23T10:58:11;2.37;;;0.70;;
19854;SDS011;10088;47.946;2.532;2024-02-23T11:00:40;2.63;;;0.60;;
19854;SDS011;10088;47.946;2.532;2024-02-23T11:03:06;4.30;;;0.80;;
19854;SDS011;10088;47.946;2.532;2024-02-23T11:05:32;3.30;;;1.57;;
19854;SDS011;10088;47.946;2.532;2024-02-23T11:07:59;7.43;;;1.10;;
19854;SDS011;10088;47.946;2.532;2024-02-23T11:10:26;2.77;;;1.07;;
19854;SDS011;10088;47.946;2.532;2024-02-23T11:12:58;3.90;;;1.07;;
19854;SDS011;10088;47.946;2.532;2024-02-23T11:15:26;7.50;;;1.23;;
19854;SDS011;10088;47.946;2.532;2024-02-23T11:17:55;3.57;;;1.17;;
19854;SDS011;10088;47.946;2.532;2024-02-23T11:20:22;4.73;;;1.30;;
19854;SDS011;10088;47.946;2.532;2024-02-23T11:22:51;3.23;;;0.70;;
19854;SDS011;10088;47.946;2.532;2024-02-23T11:25:17;2.50;;;0.93;;
19854;SDS011;10088;47.946;2.532;2024-02-23T11:27:44;1.30;;;0.60;;
19854;SDS011;10088;47.946;2.532;2024-02-23T11:30:16;2.67;;;1.13;;
19854;SDS011;10088;47.946;2.532;2024-02-23T11:32:43;4.97;;;1.10;;
19854;SDS011;10088;47.946;2.532;2024-02-23T11:35:11;2.07;;;0.80;;
19854;SDS011;10088;47.946;2.532;2024-02-23T11:37:52;2.50;;;0.63;;
19854;SDS011;10088;47.946;2.532;2024-02-23T11:40:28;2.73;;;0.60;;
19854;SDS011;10088;47.946;2.532;2024-02-23T11:42:55;2.73;;;0.40;;
19854;SDS011;10088;47.946;2.532;2024-02-23T11:45:24;4.40;;;0.80;;
19854;SDS011;10088;47.946;2.532;2024-02-23T11:47:51;0.40;;;0.30;;
19854;SDS011;10088;47.946;2.532;2024-02-23T11:50:16;1.40;;;0.43;;
19854;SDS011;10088;47.946;2.532;2024-02-23T11:52:46;2.93;;;0.77;;
19854;SDS011;10088;47.946;2.532;2024-02-23T11:55:17;1.80;;;0.70;;
19854;SDS011;10088;47.946;2.532;2024-02-23T11:57:44;1.60;;;0.30;;
19854;SDS011;10088;47.946;2.532;2024-02-23T12:00:10;0.67;;;0.43;;
19854;SDS011;10088;47.946;2.532;2024-02-23T12:02:37;0.27;;;0.20;;
19854;SDS011;10088;47.946;2.532;2024-02-23T12:05:04;1.27;;;0.30;;
19854;SDS011;10088;47.946;2.532;2024-02-23T12:07:31;0.60;;;0.30;;
19854;SDS011;10088;47.946;2.532;2024-02-23T12:09:57;2.17;;;0.30;;
19854;SDS011;10088;47.946;2.532;2024-02-23T12:12:25;0.83;;;0.50;;
19854;SDS011;10088;47.946;2.532;2024-02-23T12:14:52;2.20;;;0.43;;
19854;SDS011;10088;47.946;2.532;2024-02-23T12:17:18;1.40;;;0.43;;
19854;SDS011;10088;47.946;2.532;2024-02-23T12:19:44;0.30;;;0.30;;
19854;SDS011;10088;47.946;2.532;2024-02-23T12:22:10;0.30;;;0.30;;
19854;SDS011;10088;47.946;2.532;2024-02-23T12:24:40;0.80;;;0.27;;
19854;SDS011;10088;47.946;2.532;2024-02-23T12:27:09;0.77;;;0.30;;
19854;SDS011;10088;47.946;2.532;2024-02-23T12:29:36;0.47;;;0.40;;
19854;SDS011;10088;47.946;2.532;2024-02-23T12:32:05;1.63;;;0.30;;
19854;SDS011;10088;47.946;2.532;2024-02-23T12:34:32;2.10;;;0.60;;
19854;SDS011;10088;47.946;2.532;2024-02-23T12:36:59;0.90;;;0.50;;
19854;SDS011;10088;47.946;2.532;2024-02-23T12:39:25;2.73;;;0.70;;
19854;SDS011;10088;47.946;2.532;2024-02-23T12:41:52;2.10;;;0.50;;
19854;SDS011;10088;47.946;2.532;2024-02-23T12:44:18;1.20;;;0.30;;
19854;SDS011;10088;47.946;2.532;2024-02-23T12:46:45;1.07;;;0.53;;
19854;SDS011;10088;47.946;2.532;2024-02-23T12:49:11;0.37;;;0.30;;
19854;SDS011;10088;47.946;2.532;2024-02-23T12:51:37;1.57;;;0.83;;
19854;SDS011;10088;47.946;2.532;2024-02-23T12:54:04;0.57;;;0.20;;
19854;SDS011;10088;47.946;2.532;2024-02-23T12:56:31;0.20;;;0.20;;
19854;SDS011;10088;47.946;2.532;2024-02-23T12:58:57;0.40;;;0.30;;
19854;SDS011;10088;47.946;2.532;2024-02-23T13:01:23;0.20;;;0.20;;
19854;SDS011;10088;47.946;2.532;2024-02-23T13:03:51;0.30;;;0.20;;
19854;SDS011;10088;47.946;2.532;2024-02-23T13:06:17;0.30;;;0.20;;
19854;SDS011;10088;47.946;2.532;2024-02-23T13:08:44;0.67;;;0.40;;
19854;SDS011;10088;47.946;2.532;2024-02-23T13:11:11;4.00;;;0.67;;
19854;SDS011;10088;47.946;2.532;2024-02-23T13:13:37;2.40;;;0.60;;
19854;SDS011;10088;47.946;2.532;2024-02-23T13:16:02;2.50;;;1.17;;
19854;SDS011;10088;47.946;2.532;2024-02-23T13:18:29;2.03;;;1.00;;
19854;SDS011;10088;47.946;2.532;2024-02-23T13:20:56;0.50;;;0.40;;
19854;SDS011;10088;47.946;2.532;2024-02-23T13:23:22;0.43;;;0.40;;
19854;SDS011;10088;47.946;2.532;2024-02-23T13:25:49;2.07;;;0.73;;
19854;SDS011;10088;47.946;2.532;2024-02-23T13:28:15;0.50;;;0.30;;
19854;SDS011;10088;47.946;2.532;2024-02-23T13:30:41;0.30;;;0.30;;
19854;SDS011;10088;47.946;2.532;2024-02-23T13:33:07;1.80;;;0.87;;
19854;SDS011;10088;47.946;2.532;2024-02-23T13:35:35;0.57;;;0.30;;
19854;SDS011;10088;47.946;2.532;2024-02-23T13:38:03;2.30;;;0.50;;
19854;SDS011;10088;47.946;2.532;2024-02-23T13:40:31;3.40;;;0.97;;
19854;SDS011;10088;47.946;2.532;2024-02-23T13:42:58;1.97;;;0.67;;
19854;SDS011;10088;47.946;2.532;2024-02-23T13:45:24;3.17;;;0.87;;
19854;SDS011;10088;47.946;2.532;2024-02-23T13:47:57;1.83;;;0.60;;
19854;SDS011;10088;47.946;2.532;2024-02-23T13:50:25;0.83;;;0.60;;
19854;SDS011;10088;47.946;2.532;2024-02-23T13:52:50;0.80;;;0.67;;
19854;SDS011;10088;47.946;2.532;2024-02-23T13:55:16;1.17;;;0.40;;
19854;SDS011;10088;47.946;2.532;2024-02-23T13:57:41;0.93;;;0.40;;
19854;SDS011;10088;47.946;2.532;2024-02-23T14:00:06;0.30;;;0.30;;
19854;SDS011;10088;47.946;2.532;2024-02-23T14:02:37;1.07;;;0.60;;
19854;SDS011;10088;47.946;2.532;2024-02-23T14:05:05;2.17;;;0.40;;
19854;SDS011;10088;47.946;2.532;2024-02-23T14:07:32;1.43;;;0.60;;
19854;SDS011;10088;47.946;2.532;2024-02-23T14:09:57;1.87;;;1.20;;
19854;SDS011;10088;47.946;2.532;2024-02-23T14:12:22;2.30;;;1.10;;
19854;SDS011;10088;47.946;2.532;2024-02-23T14:14:48;1.33;;;0.30;;
19854;SDS011;10088;47.946;2.532;2024-02-23T14:17:13;2.23;;;1.27;;
19854;SDS011;10088;47.946;2.532;2024-02-23T14:19:39;3.13;;;2.00;;
19854;SDS011;10088;47.946;2.532;2024-02-23T14:22:04;2.43;;;1.30;;
19854;SDS011;10088;47.946;2.532;2024-02-23T14:24:29;2.80;;;0.77;;
19854;SDS011;10088;47.946;2.532;2024-02-23T14:26:55;6.27;;;3.83;;
19854;SDS011;10088;47.946;2.532;2024-02-23T14:29:20;2.40;;;1.50;;
19854;SDS011;10088;47.946;2.532;2024-02-23T14:31:45;3.80;;;2.47;;
19854;SDS011;10088;47.946;2.532;2024-02-23T14:34:10;2.07;;;0.67;;
19854;SDS011;10088;47.946;2.532;2024-02-23T14:36:36;3.70;;;2.03;;
19854;SDS011;10088;47.946;2.532;2024-02-23T14:39:01;3.03;;;1.30;;